Historyczne dane pomiarowe

Dodano dane terminowe – wersja testowa.

Dane z okresu 1951-2019

Wersja bazy: 1.34 [2019-03-16, lista zmian], aktualizacja planowana na 2019-04-15

Dane meteo z obszaru Polski uzyskane na podstawie danych udostępnionych przez Instytut Meteorologii i Gospodarki Wodnej – Państwowy Instytut Badawczy.

 

Wybierz Datę:    

       

TemperaturaWilgotnośćWiatrCiśnienieOpadyŚniegCzas trwania zjawisk
 Stacja t tx tn tng RH VA  wxwx mslp ppp RRR   cm mm wxwxwxwxwxwxwx
1961-08-14 13.1 19.1 8.5--- 3.3 3.7---- 0.0------------
1961-08-13 13.8 18.5 11.5--- 3.3 3.0---- 0.0------------
1961-08-12 16.4 21.7 12.6--- 5.7 3.0---- 0.0------------
1961-08-11 15.6 18.9 13.2--- 8.0 3.0---- 5.3------------
1961-08-10 19.0 23.9 10.0--- 4.7 3.7---- 1.3------------
1961-08-09 17.7 25.2 13.2--- 3.0 4.7---- 0.0------------
1961-08-08 16.0 20.8 10.2--- 5.3 4.0---- 0.0------------
1961-08-07 14.6 16.4 13.5--- 7.7 1.0---- 8.5------------
1961-08-06 19.3 27.8 13.9--- 5.0 3.3---- 1.1------------
1961-08-05 16.5 20.6 12.3--- 5.0 4.3---- 0.0------------
1961-08-04 13.5 17.7 9.5--- 5.7 5.3---- 2.6------------
1961-08-03 14.7 17.9 13.3--- 8.0 2.7---- 0.9------------
1961-08-02 16.5 22.3 11.5--- 4.7 3.3---- 12.9------------
1961-08-01 13.6 16.5 11.9--- 8.0 5.0---- 8.5------------
1961-07-31 15.0 18.0 12.5--- 6.7 4.3---- 14.4------------
1961-07-30 15.4 19.7 10.4--- 7.3 1.3---- 4.4------------
1961-07-29 13.7 19.0 12.1--- 8.0 1.3---- 0.2------------
1961-07-28 14.6 17.1 12.3--- 6.3 2.0---- 8.1------------
1961-07-27 16.6 22.1 14.5--- 8.0 2.7---- 1.4------------
1961-07-26 15.0 17.9 12.2--- 6.7 3.3---- 1.9------------
1961-07-25 14.2 17.6 10.0--- 5.7 3.7---- 0.3------------
1961-07-24 14.2 17.9 11.2--- 8.0 2.0---- 7.7------------
1961-07-23 15.0 19.2 12.8--- 8.0 1.7---- 5.7------------
1961-07-22 14.0 18.6 12.6--- 8.0 1.3---- 24.1------------
1961-07-21 14.7 17.9 9.5--- 7.0 1.3---- 9.0------------
1961-07-20 16.2 22.1 12.4--- 4.3 2.7---- 3.2------------
1961-07-19 16.8 21.8 12.2--- 4.7 3.0---- 0.4------------
1961-07-18 14.4 18.3 12.6--- 7.3 2.7---- 7.2------------
1961-07-17 15.8 22.3 8.6--- 4.7 2.3---- 0.0------------
1961-07-16 15.2 19.3 8.2--- 8.0 2.7---- 2.7------------
1961-07-15 16.5 21.4 10.3--- 8.0 2.7---- 0.3------------
1961-07-14 14.4 22.0 13.2--- 8.0 4.7---- 0.0------------
1961-07-13 21.4 27.2 12.1--- 5.7 3.7---- 13.4------------
1961-07-12 17.6 23.3 10.4--- 5.0 3.0---- 4.2------------
1961-07-11 15.1 19.9 10.1--- 3.0 4.0---- 0.0------------
1961-07-10 13.0 16.5 11.0--- 7.3 3.3---- 3.0------------
1961-07-09 16.5 23.2 12.0--- 5.3 5.0---- 10.6------------
1961-07-08 13.8 18.9 9.0--- 4.7 4.7---- 3.7------------
1961-07-07 12.5 16.8 9.5--- 4.7 4.7---- 5.8------------
1961-07-06 12.8 17.4 8.7--- 4.7 6.7---- 0.0------------
1961-07-05 14.7 17.6 13.2--- 6.3 8.3---- 0.0------------
1961-07-04 16.8 26.8 14.0--- 5.3 4.3---- 1.8------------
1961-07-03 25.2 31.1 12.7--- 1.3 3.0---- 1.8------------
1961-07-02 21.0 26.3 12.4--- 0.0 2.3---- 0.0------------
1961-07-01 18.8 25.4 9.0--- 3.7 2.0---- 0.0------------
1961-06-30 15.0 21.9 9.9--- 0.7 3.7---- 0.0------------
1961-06-29 14.2 17.1 10.4--- 3.7 4.0---- 1.3------------
1961-06-28 13.3 21.1 10.8--- 4.7 6.3---- 0.0------------
1961-06-27 23.2 31.3 12.4--- 4.0 4.0---- 4.4------------
1961-06-26 18.7 25.4 15.0--- 2.7 4.3---- 0.0------------
1961-06-25 20.3 26.3 12.8--- 5.7 4.3---- 0.0------------
1961-06-24 16.7 19.7 13.0--- 8.0 6.7---- 0.0------------
1961-06-23 16.4 22.8 11.6--- 5.7 3.3---- 0.0------------
1961-06-22 14.7 20.1 7.6--- 1.7 3.3---- 0.0------------
1961-06-21 13.3 20.9 9.0--- 6.7 5.0---- 5.1------------
1961-06-20 13.4 18.1 9.5--- 2.3 6.0---- 0.0------------
1961-06-19 14.9 20.4 13.3--- 3.7 7.0---- 0.0------------
1961-06-18 20.3 25.9 13.4--- 7.3 6.7---- 2.8------------
1961-06-17 16.2 21.0 11.4--- 4.0 3.0---- 0.0------------
1961-06-16 13.6 16.9 10.9--- 8.0 5.7---- 5.6------------
520.4 ms

 

Źródłem pochodzenia danych jest Instytut Meteorologii i Gospodarki Wodnej – Państwowy Instytut Badawczy. Dane Instytutu Meteorologii i Gospodarki Wodnej – Państwowego Instytutu Badawczego zostały przetworzone.

Dane źródłowe można odnaleźć na stronie https://dane.imgw.pl